createdAt,value
2018-04-27T00:02:15.810Z,11.50
2018-04-27T00:04:43.258Z,11.40
2018-04-27T00:07:10.742Z,11.20
2018-04-27T00:09:38.195Z,11.10
2018-04-27T00:12:05.671Z,11.00
2018-04-27T00:14:33.153Z,10.90
2018-04-27T00:17:00.614Z,10.90
2018-04-27T00:19:28.154Z,10.80
2018-04-27T00:21:56.445Z,10.70
2018-04-27T00:24:24.671Z,10.50
2018-04-27T00:26:52.153Z,10.50
2018-04-27T00:29:19.720Z,10.50
2018-04-27T00:31:47.299Z,10.50
2018-04-27T00:34:14.736Z,10.50
2018-04-27T00:36:42.970Z,10.60
2018-04-27T00:39:10.452Z,10.50
2018-04-27T00:41:37.882Z,10.60
2018-04-27T00:44:06.106Z,10.50
2018-04-27T00:46:33.569Z,10.60
2018-04-27T00:49:01.043Z,10.50
2018-04-27T00:51:28.522Z,10.50
2018-04-27T00:53:56.816Z,10.70
2018-04-27T00:56:25.033Z,10.70
2018-04-27T00:58:52.500Z,10.60
2018-04-27T01:01:19.947Z,10.70
2018-04-27T01:03:48.181Z,10.60
2018-04-27T01:06:15.626Z,10.60
2018-04-27T01:08:43.206Z,10.80
2018-04-27T01:11:11.433Z,10.80
2018-04-27T01:13:38.884Z,10.80
2018-04-27T01:16:06.362Z,10.80
2018-04-27T01:18:33.807Z,10.80
2018-04-27T01:21:02.248Z,10.70
2018-04-27T01:23:29.674Z,10.70
2018-04-27T01:25:57.840Z,10.70
2018-04-27T01:28:25.286Z,10.80
2018-04-27T01:30:52.745Z,10.80
2018-04-27T01:33:20.202Z,10.70
2018-04-27T01:35:47.666Z,10.70
2018-04-27T01:38:15.887Z,10.60
2018-04-27T01:40:43.369Z,10.60
2018-04-27T01:43:10.820Z,10.70
2018-04-27T01:45:38.294Z,10.60
2018-04-27T01:48:05.750Z,10.50
2018-04-27T01:50:34.251Z,10.30
2018-04-27T01:53:02.478Z,10.40
2018-04-27T01:55:29.967Z,10.30
2018-04-27T01:57:57.431Z,10.40
2018-04-27T02:00:24.883Z,10.50
2018-04-27T02:02:53.097Z,10.50
2018-04-27T02:05:20.562Z,10.50
2018-04-27T02:07:48.027Z,10.40
2018-04-27T02:10:15.478Z,10.30
2018-04-27T02:12:43.711Z,10.30
2018-04-27T02:15:11.273Z,10.20
2018-04-27T02:17:39.500Z,10.40
2018-04-27T02:20:06.950Z,10.40
2018-04-27T02:22:34.426Z,10.50
2018-04-27T02:25:01.866Z,10.50
2018-04-27T02:27:29.372Z,10.50
2018-04-27T02:29:56.842Z,10.50
2018-04-27T02:32:24.284Z,10.50
2018-04-27T02:34:52.529Z,10.30
2018-04-27T02:37:19.985Z,10.30
2018-04-27T02:39:47.464Z,10.30
2018-04-27T02:42:14.907Z,10.40
2018-04-27T02:44:43.136Z,10.40
2018-04-27T02:47:10.719Z,10.40
2018-04-27T02:49:38.193Z,10.20
2018-04-27T02:52:05.628Z,10.30
2018-04-27T02:54:33.882Z,10.10
2018-04-27T02:57:01.342Z,10.10
2018-04-27T02:59:28.794Z,10.20
2018-04-27T03:01:56.246Z,10.20
2018-04-27T03:04:24.582Z,10.20
2018-04-27T03:06:52.035Z,10.20
2018-04-27T03:09:19.527Z,10.30
2018-04-27T03:11:46.997Z,10.20
2018-04-27T03:14:14.435Z,10.10
2018-04-27T03:16:42.681Z,9.90
2018-04-27T03:19:10.257Z,9.90
2018-04-27T03:21:37.655Z,10.00
2018-04-27T03:24:05.136Z,10.10
2018-04-27T03:26:32.565Z,10.10
2018-04-27T03:29:00.080Z,10.20
2018-04-27T03:31:27.558Z,10.30
2018-04-27T03:33:55.015Z,10.30
2018-04-27T03:36:22.491Z,10.30
2018-04-27T03:38:49.950Z,10.30
2018-04-27T03:41:17.422Z,10.20
2018-04-27T03:43:44.873Z,10.20
2018-04-27T03:46:12.335Z,10.30
2018-04-27T03:48:40.561Z,10.20
2018-04-27T03:51:08.805Z,10.20
2018-04-27T03:53:36.242Z,10.20
2018-04-27T03:56:03.722Z,10.10
2018-04-27T03:58:31.171Z,10.10
2018-04-27T04:01:10.552Z,10.10
2018-04-27T04:03:50.026Z,10.00
2018-04-27T04:06:17.501Z,9.90
2018-04-27T04:08:45.725Z,9.70
2018-04-27T04:11:13.190Z,9.70
2018-04-27T04:13:41.401Z,9.60
2018-04-27T04:16:08.845Z,9.60
2018-04-27T04:18:37.066Z,9.10
2018-04-27T04:21:04.536Z,9.10
2018-04-27T04:23:31.976Z,9.30
2018-04-27T04:26:03.663Z,9.30
2018-04-27T04:28:31.879Z,9.60
2018-04-27T04:30:59.365Z,9.50
2018-04-27T04:33:26.895Z,9.40
2018-04-27T04:35:54.314Z,9.40
2018-04-27T04:38:21.853Z,9.40
2018-04-27T04:40:49.210Z,9.20
2018-04-27T04:43:16.662Z,9.40
2018-04-27T04:45:44.141Z,9.60
2018-04-27T04:48:11.598Z,9.70
2018-04-27T04:50:39.057Z,9.70
2018-04-27T04:53:06.543Z,9.80
2018-04-27T04:55:33.955Z,9.70
2018-04-27T04:58:01.433Z,9.60
2018-04-27T05:00:28.903Z,9.40
2018-04-27T05:02:56.449Z,9.60
2018-04-27T05:05:23.822Z,9.50
2018-04-27T05:07:51.285Z,9.60
2018-04-27T05:10:18.727Z,9.50
2018-04-27T05:12:46.950Z,9.60
2018-04-27T05:15:15.007Z,9.60
2018-04-27T05:17:43.241Z,10.00
2018-04-27T05:20:10.220Z,10.00
2018-04-27T05:22:37.681Z,10.20
2018-04-27T05:25:05.125Z,10.30
2018-04-27T05:27:32.596Z,10.00
2018-04-27T05:30:00.771Z,10.10
2018-04-27T05:32:28.998Z,10.10
2018-04-27T05:34:56.464Z,10.20
2018-04-27T05:37:23.923Z,10.40
2018-04-27T05:39:51.392Z,10.90
2018-04-27T05:42:19.603Z,12.10
2018-04-27T05:44:47.075Z,12.10
2018-04-27T05:47:14.550Z,12.70
2018-04-27T05:49:42.019Z,12.80
2018-04-27T05:52:09.491Z,13.10
2018-04-27T05:54:37.737Z,13.50
2018-04-27T05:57:05.186Z,13.40
2018-04-27T05:59:32.675Z,13.70
2018-04-27T06:02:00.140Z,14.20
2018-04-27T06:04:27.607Z,14.50
2018-04-27T06:06:55.407Z,15.10
2018-04-27T06:09:22.885Z,15.10
2018-04-27T06:11:50.434Z,14.40
2018-04-27T06:14:18.633Z,13.60
2018-04-27T06:16:46.087Z,13.60
2018-04-27T06:19:14.394Z,13.60
2018-04-27T06:21:42.882Z,13.60
2018-04-27T06:24:10.342Z,13.60
2018-04-27T06:26:42.559Z,13.30
2018-04-27T06:29:10.166Z,13.30
2018-04-27T06:31:37.679Z,13.40
2018-04-27T06:34:05.958Z,13.70
2018-04-27T06:36:33.432Z,13.70
2018-04-27T06:39:00.918Z,13.10
2018-04-27T06:41:29.151Z,13.10
2018-04-27T06:43:56.776Z,13.10
2018-04-27T06:46:24.239Z,13.00
2018-04-27T06:48:51.693Z,13.20
2018-04-27T06:51:19.146Z,13.20
2018-04-27T06:53:46.619Z,13.80
2018-04-27T06:56:14.078Z,14.40
2018-04-27T06:58:42.318Z,14.80
2018-04-27T07:01:09.762Z,14.70
2018-04-27T07:03:37.272Z,15.30
2018-04-27T07:06:08.379Z,15.70
2018-04-27T07:08:36.614Z,16.20
2018-04-27T07:11:04.142Z,16.10
2018-04-27T07:13:32.366Z,16.30
2018-04-27T07:15:59.903Z,16.30
2018-04-27T07:18:27.384Z,16.50
2018-04-27T07:20:54.851Z,16.50
2018-04-27T07:23:22.302Z,16.80
2018-04-27T07:25:49.806Z,16.60
2018-04-27T07:28:17.254Z,16.80
2018-04-27T07:30:44.707Z,16.80
2018-04-27T07:33:12.180Z,16.70
2018-04-27T07:35:39.647Z,17.10
2018-04-27T07:38:07.135Z,17.70
2018-04-27T07:40:34.720Z,17.70
2018-04-27T07:43:02.277Z,18.20
2018-04-27T07:45:29.720Z,18.10
2018-04-27T07:47:58.030Z,16.00
2018-04-27T07:50:26.282Z,15.80
2018-04-27T07:52:53.730Z,15.70
2018-04-27T07:55:21.249Z,16.50
2018-04-27T07:57:48.675Z,17.50
2018-04-27T08:00:16.119Z,17.40
2018-04-27T08:02:44.414Z,17.40
2018-04-27T08:05:11.854Z,18.40
2018-04-27T08:07:39.319Z,18.10
2018-04-27T08:10:06.784Z,18.80
2018-04-27T08:12:34.279Z,19.50
2018-04-27T08:15:01.713Z,19.70
2018-04-27T08:17:29.535Z,20.10
2018-04-27T08:19:56.988Z,21.50
2018-04-27T08:22:24.608Z,20.20
2018-04-27T08:24:52.821Z,20.50
2018-04-27T08:27:20.282Z,20.50
2018-04-27T08:29:48.536Z,21.60
2018-04-27T08:32:16.016Z,21.60
2018-04-27T08:34:43.465Z,21.50
2018-04-27T08:37:10.939Z,22.10
2018-04-27T08:39:38.419Z,21.40
2018-04-27T08:42:05.846Z,21.80
2018-04-27T08:44:34.082Z,20.40
2018-04-27T08:47:01.521Z,20.40
2018-04-27T08:49:29.726Z,20.40
2018-04-27T08:51:57.179Z,20.40
2018-04-27T08:54:24.647Z,20.40
2018-04-27T08:56:52.117Z,21.80
2018-04-27T08:59:19.629Z,22.80
2018-04-27T09:01:47.198Z,22.50
2018-04-27T09:04:15.503Z,21.80
2018-04-27T09:06:43.716Z,22.40
2018-04-27T09:09:11.202Z,22.40
2018-04-27T09:11:38.669Z,22.70
2018-04-27T09:14:07.646Z,21.60
2018-04-27T09:16:35.906Z,22.50
2018-04-27T09:19:03.384Z,22.40
2018-04-27T09:21:30.836Z,22.20
2018-04-27T09:23:58.288Z,23.50
2018-04-27T09:26:25.744Z,23.40
2018-04-27T09:28:53.218Z,22.20
2018-04-27T09:31:20.796Z,22.10
2018-04-27T09:33:48.234Z,20.50
2018-04-27T09:36:16.062Z,21.60
2018-04-27T09:38:43.499Z,21.60
2018-04-27T09:41:11.733Z,22.30
2018-04-27T09:43:39.199Z,22.20
2018-04-27T09:46:06.671Z,21.50
2018-04-27T09:48:34.107Z,19.90
2018-04-27T09:51:01.575Z,20.90
2018-04-27T09:53:29.304Z,21.30
2018-04-27T09:55:56.767Z,21.30
2018-04-27T09:58:24.222Z,21.20
2018-04-27T10:00:52.480Z,22.60
2018-04-27T10:03:20.044Z,22.60
2018-04-27T10:05:47.595Z,23.30
2018-04-27T10:08:14.982Z,22.50
2018-04-27T10:10:42.487Z,21.90
2018-04-27T10:13:09.952Z,21.90
2018-04-27T10:15:37.602Z,22.00
2018-04-27T10:18:05.822Z,23.20
2018-04-27T10:20:33.305Z,23.20
2018-04-27T10:23:00.791Z,23.20
2018-04-27T10:28:01.898Z,22.60
2018-04-27T10:30:29.345Z,21.20
2018-04-27T10:32:56.830Z,21.10
2018-04-27T10:35:24.277Z,22.00
2018-04-27T10:37:51.838Z,22.00
2018-04-27T10:40:20.035Z,22.30
2018-04-27T10:42:47.518Z,22.20
2018-04-27T10:45:14.997Z,21.80
2018-04-27T10:47:42.481Z,21.60
2018-04-27T10:50:10.032Z,22.30
2018-04-27T10:52:37.608Z,21.70
2018-04-27T10:55:05.840Z,22.00
2018-04-27T10:57:34.210Z,22.00
2018-04-27T11:00:02.507Z,22.40
2018-04-27T11:02:29.963Z,22.60
2018-04-27T11:04:57.471Z,22.50
2018-04-27T11:07:24.935Z,23.10
2018-04-27T11:09:52.373Z,23.20
2018-04-27T11:12:20.580Z,22.00
2018-04-27T11:14:48.059Z,22.00
2018-04-27T11:17:16.278Z,22.90
2018-04-27T11:19:43.834Z,22.90
2018-04-27T11:22:12.067Z,23.70
2018-04-27T11:24:39.546Z,23.70
2018-04-27T11:27:06.986Z,23.10
2018-04-27T11:29:34.501Z,22.90
2018-04-27T11:32:02.725Z,21.60
2018-04-27T11:34:31.033Z,21.10
2018-04-27T11:36:59.228Z,21.50
2018-04-27T11:39:26.719Z,21.50
2018-04-27T11:41:54.215Z,21.80
2018-04-27T11:44:21.698Z,21.30
2018-04-27T11:46:49.191Z,20.90
2018-04-27T11:49:16.641Z,21.30
2018-04-27T11:51:44.100Z,21.80
2018-04-27T11:54:11.518Z,22.00
2018-04-27T11:56:38.980Z,21.90
2018-04-27T11:59:06.448Z,21.60
2018-04-27T12:01:33.921Z,21.30
2018-04-27T12:04:01.392Z,21.40
2018-04-27T12:06:28.876Z,22.00
2018-04-27T12:08:56.319Z,22.40
2018-04-27T12:11:23.784Z,22.50
2018-04-27T12:13:51.268Z,23.30
2018-04-27T12:16:18.712Z,23.50
2018-04-27T12:18:46.938Z,22.90
2018-04-27T12:21:14.393Z,22.90
2018-04-27T12:23:45.613Z,23.20
2018-04-27T12:26:13.160Z,23.00
2018-04-27T12:28:40.553Z,22.90
2018-04-27T12:31:08.037Z,22.90
2018-04-27T12:33:35.513Z,21.80
2018-04-27T12:36:03.700Z,21.40
2018-04-27T12:38:31.228Z,21.40
2018-04-27T12:40:59.435Z,21.90
2018-04-27T12:43:26.913Z,21.90
2018-04-27T12:45:54.476Z,22.30
2018-04-27T12:48:22.769Z,21.30
2018-04-27T12:50:50.961Z,20.60
2018-04-27T12:53:18.446Z,20.60
2018-04-27T12:55:45.874Z,20.40
2018-04-27T12:58:13.340Z,20.70
2018-04-27T13:00:40.784Z,20.90
2018-04-27T13:03:08.335Z,21.40
2018-04-27T13:05:36.565Z,22.60
2018-04-27T13:08:04.025Z,22.60
2018-04-27T13:10:31.497Z,22.60
2018-04-27T13:12:58.947Z,22.00
2018-04-27T13:15:26.426Z,22.70
2018-04-27T13:17:53.878Z,22.30
2018-04-27T13:20:22.107Z,22.20
2018-04-27T13:22:49.564Z,22.20
2018-04-27T13:25:17.031Z,22.20
2018-04-27T13:27:45.245Z,22.10
2018-04-27T13:30:12.743Z,22.10
2018-04-27T13:32:40.235Z,22.20
2018-04-27T13:35:07.684Z,21.90
2018-04-27T13:37:35.850Z,21.70
2018-04-27T13:40:04.082Z,23.40
2018-04-27T13:42:31.556Z,23.40
2018-04-27T13:44:59.022Z,24.00
2018-04-27T13:47:26.489Z,24.60
2018-04-27T13:49:53.949Z,24.40
2018-04-27T13:52:21.435Z,24.20
2018-04-27T13:54:48.887Z,23.70
2018-04-27T13:57:17.169Z,22.80
2018-04-27T13:59:44.568Z,22.80
2018-04-27T14:02:12.038Z,22.90
2018-04-27T14:07:17.997Z,23.00
2018-04-27T14:09:45.506Z,23.00
2018-04-27T14:12:12.929Z,22.70
2018-04-27T14:14:40.477Z,23.20
2018-04-27T14:17:07.945Z,23.60
2018-04-27T14:19:35.451Z,23.60
2018-04-27T14:22:02.972Z,22.80
2018-04-27T14:24:30.467Z,23.00
2018-04-27T14:26:58.849Z,23.40
2018-04-27T14:29:26.527Z,23.40
2018-04-27T14:31:54.368Z,23.40
2018-04-27T14:34:21.893Z,22.60
2018-04-27T14:36:50.400Z,22.60
2018-04-27T14:39:17.959Z,22.60
2018-04-27T14:41:46.205Z,21.60
2018-04-27T14:44:13.676Z,21.60
2018-04-27T14:46:41.207Z,21.70
2018-04-27T14:49:08.852Z,21.90
2018-04-27T14:51:36.442Z,22.20
2018-04-27T14:54:03.999Z,22.40
2018-04-27T14:56:31.525Z,21.80
2018-04-27T14:58:59.834Z,21.70
2018-04-27T15:01:27.504Z,21.70
2018-04-27T15:03:55.022Z,21.60
2018-04-27T15:06:22.513Z,21.70
2018-04-27T15:08:50.050Z,21.90
2018-04-27T15:11:17.617Z,22.00
2018-04-27T15:13:45.158Z,22.10
2018-04-27T15:16:12.611Z,22.00
2018-04-27T15:18:40.060Z,22.10
2018-04-27T15:21:07.775Z,21.90
2018-04-27T15:23:35.222Z,21.60
2018-04-27T15:26:02.800Z,21.70
2018-04-27T15:28:30.294Z,21.60
2018-04-27T15:30:57.775Z,21.70
2018-04-27T15:33:25.220Z,21.50
2018-04-27T15:35:52.716Z,20.90
2018-04-27T15:38:20.290Z,20.90
2018-04-27T15:40:47.800Z,21.10
2018-04-27T15:43:16.077Z,21.10
2018-04-27T15:45:43.574Z,21.00
2018-04-27T15:48:11.824Z,21.00
2018-04-27T15:50:39.327Z,21.00
2018-04-27T15:53:06.888Z,21.00
2018-04-27T15:55:34.769Z,21.10
2018-04-27T15:58:02.377Z,21.20
2018-04-27T16:00:29.874Z,21.30
2018-04-27T16:02:58.297Z,21.00
2018-04-27T16:05:26.264Z,20.90
2018-04-27T16:07:54.748Z,21.00
2018-04-27T16:23:17.293Z,21.10
2018-04-27T16:25:44.777Z,21.10
2018-04-27T16:28:12.345Z,21.00
2018-04-27T16:30:39.972Z,20.90
2018-04-27T16:33:07.517Z,20.80
2018-04-27T16:35:35.679Z,20.80
2018-04-27T16:38:04.657Z,20.60
2018-04-27T16:40:32.183Z,20.60
2018-04-27T16:42:59.703Z,20.50
2018-04-27T16:45:27.385Z,20.70
2018-04-27T16:47:54.840Z,20.60
2018-04-27T16:50:27.098Z,20.60
2018-04-27T16:52:54.639Z,20.70
2018-04-27T16:55:22.989Z,20.90
2018-04-27T16:57:50.871Z,20.90
2018-04-27T17:00:18.986Z,21.00
2018-04-27T17:02:50.871Z,20.90
2018-04-27T17:05:18.414Z,20.80
2018-04-27T17:07:45.921Z,20.90
2018-04-27T17:10:13.620Z,20.90
2018-04-27T17:12:41.656Z,20.90
2018-04-27T17:15:09.158Z,20.90
2018-04-27T17:22:40.192Z,20.60
2018-04-27T17:25:09.222Z,20.60
2018-04-27T17:27:37.595Z,20.60
2018-04-27T17:30:05.437Z,20.50
2018-04-27T17:32:33.035Z,20.50
2018-04-27T17:35:00.672Z,20.40
2018-04-27T17:37:28.189Z,20.30
2018-04-27T17:39:55.674Z,20.20
2018-04-27T17:42:23.265Z,20.20
2018-04-27T17:44:50.913Z,20.20
2018-04-27T17:47:18.677Z,20.20
2018-04-27T17:49:47.982Z,20.10
2018-04-27T17:52:15.528Z,20.10
2018-04-27T17:54:43.048Z,20.00
2018-04-27T17:59:42.309Z,20.10
2018-04-27T18:02:10.097Z,20.00
2018-04-27T18:04:37.766Z,20.10
2018-04-27T18:07:05.883Z,20.10
2018-04-27T18:09:33.426Z,20.00
2018-04-27T18:12:01.407Z,19.90
2018-04-27T18:14:29.213Z,19.90
2018-04-27T18:16:57.271Z,20.00
2018-04-27T18:19:24.948Z,19.90
2018-04-27T18:21:53.436Z,19.80
2018-04-27T18:24:21.212Z,19.70
2018-04-27T18:26:49.622Z,19.60
2018-04-27T18:29:17.424Z,19.60
2018-04-27T18:31:45.858Z,19.60
2018-04-27T18:34:13.565Z,19.70
2018-04-27T18:36:41.371Z,19.70
2018-04-27T18:41:41.578Z,19.50
2018-04-27T18:44:09.385Z,19.40
2018-04-27T18:46:41.110Z,19.30
2018-04-27T18:49:10.471Z,19.30
2018-04-27T18:51:38.764Z,19.30
2018-04-27T18:54:10.146Z,19.20
2018-04-27T18:59:10.999Z,19.10
2018-04-27T19:01:39.466Z,19.10
2018-04-27T19:04:07.065Z,19.10
2018-04-27T19:06:34.694Z,19.00
2018-04-27T19:09:03.161Z,19.00
2018-04-27T19:11:30.759Z,19.00
2018-04-27T19:13:58.357Z,18.80
2018-04-27T19:16:30.285Z,18.70
2018-04-27T19:19:04.536Z,18.60
2018-04-27T19:21:32.157Z,18.50
2018-04-27T19:23:59.611Z,18.40
2018-04-27T19:26:27.098Z,18.40
2018-04-27T19:28:55.203Z,18.30
2018-04-27T19:31:22.730Z,18.30
2018-04-27T19:33:51.061Z,18.30
2018-04-27T19:36:18.541Z,18.10
2018-04-27T19:38:46.012Z,18.00
2018-04-27T19:41:13.733Z,17.90
2018-04-27T19:43:41.337Z,17.70
2018-04-27T19:46:08.780Z,17.70
2018-04-27T19:48:36.285Z,17.70
2018-04-27T19:51:03.731Z,17.50
2018-04-27T19:53:31.203Z,17.40
2018-04-27T19:55:59.429Z,17.30
2018-04-27T19:58:27.033Z,17.30
2018-04-27T20:00:54.519Z,17.20
2018-04-27T20:03:22.049Z,17.20
2018-04-27T20:05:49.556Z,17.20
2018-04-27T20:08:21.449Z,17.20
2018-04-27T20:10:49.772Z,16.80
2018-04-27T20:13:19.477Z,16.70
2018-04-27T20:16:02.379Z,16.70
2018-04-27T20:18:29.906Z,16.80
2018-04-27T20:21:00.865Z,16.70
2018-04-27T20:23:34.945Z,16.70
2018-04-27T20:26:06.053Z,16.70
2018-04-27T20:28:38.154Z,16.60
2018-04-27T20:31:05.676Z,16.50
2018-04-27T20:33:33.170Z,16.40
2018-04-27T20:36:05.363Z,16.40
2018-04-27T20:38:33.647Z,16.30
2018-04-27T20:41:18.441Z,16.40
2018-04-27T20:43:46.731Z,16.40
2018-04-27T20:46:14.244Z,16.30
2018-04-27T20:48:43.431Z,16.00
2018-04-27T20:51:12.272Z,15.80
2018-04-27T20:53:41.583Z,15.80
2018-04-27T20:56:09.052Z,15.70
2018-04-27T20:58:36.521Z,15.80
2018-04-27T21:01:03.998Z,15.80
2018-04-27T21:03:32.211Z,15.70
2018-04-27T21:05:59.708Z,15.70
2018-04-27T21:08:27.247Z,15.60
2018-04-27T21:10:54.757Z,15.60
2018-04-27T21:13:23.042Z,15.80
2018-04-27T21:15:50.536Z,15.80
2018-04-27T21:18:18.003Z,15.70
2018-04-27T21:20:45.514Z,15.60
2018-04-27T21:23:13.767Z,15.60
2018-04-27T21:25:44.774Z,15.60
2018-04-27T21:28:14.196Z,15.60
2018-04-27T21:30:45.403Z,15.70
2018-04-27T21:33:13.010Z,15.70
2018-04-27T21:35:49.857Z,15.50
2018-04-27T21:41:21.833Z,15.50
2018-04-27T21:43:50.959Z,15.60
2018-04-27T21:46:26.235Z,15.60
2018-04-27T21:48:54.330Z,15.60
2018-04-27T21:54:32.760Z,15.60
2018-04-27T21:57:20.771Z,15.60
2018-04-27T21:59:54.853Z,15.60
2018-04-27T22:05:44.809Z,15.50
2018-04-27T22:08:29.902Z,15.50
2018-04-27T22:11:00.117Z,15.30
2018-04-27T22:13:28.461Z,15.10
2018-04-27T22:15:55.936Z,15.00
2018-04-27T22:18:23.437Z,15.00
2018-04-27T22:20:52.745Z,14.90
2018-04-27T22:23:21.027Z,15.00
2018-04-27T22:25:48.504Z,15.00
2018-04-27T22:28:36.752Z,15.00
2018-04-27T22:31:05.612Z,15.10
2018-04-27T22:33:36.576Z,15.10
2018-04-27T22:36:27.260Z,15.20
2018-04-27T22:42:07.772Z,15.10
2018-04-27T22:44:41.935Z,15.10
2018-04-27T22:47:11.161Z,15.20
2018-04-27T22:49:38.634Z,15.20
2018-04-27T22:52:06.144Z,15.20
2018-04-27T22:54:56.181Z,15.20
2018-04-27T22:57:25.367Z,15.20
2018-04-27T23:02:50.126Z,15.00
2018-04-27T23:05:30.204Z,14.90
2018-04-27T23:07:59.270Z,14.90
2018-04-27T23:10:26.732Z,15.00
2018-04-27T23:13:00.854Z,14.90
2018-04-27T23:15:36.980Z,14.90
2018-04-27T23:18:07.958Z,14.90
2018-04-27T23:20:35.418Z,14.90
2018-04-27T23:23:06.461Z,14.80
2018-04-27T23:25:34.643Z,14.80
2018-04-27T23:28:02.122Z,14.80
2018-04-27T23:30:31.162Z,14.80
2018-04-27T23:32:59.381Z,14.70
2018-04-27T23:35:26.842Z,14.70
2018-04-27T23:37:54.329Z,14.70
2018-04-27T23:40:21.773Z,14.70
2018-04-27T23:42:49.234Z,14.70
2018-04-27T23:45:16.687Z,14.60
2018-04-27T23:47:45.930Z,14.60
2018-04-27T23:50:14.163Z,14.60
2018-04-27T23:52:41.614Z,14.60
2018-04-27T23:55:09.064Z,14.60
2018-04-27T23:57:36.674Z,14.60
